Westfield, Pennsylvania
Current Conditions -  °F | °C
As of 10:55 PM on Tuesday 25 Nov 2014 (Local Time) from KN38 Reporting Station
Clear Clear  
Wind Chill: 27°   Ceiling: Unl
Heat Index: 34°   Visibility: 10mi
Dew Point: 23°   Wind: 8mph
Humidity: 65%   Direction: 300°WNW
Pressure: 30.13"   Gusts: NA
Location:  41.92°N, 77.54°W
Report Text: KN38 260355Z AUTO 30007KT 10SM CLR 01/M05 A3013 RMK AO2
Loading
Personal Weather Stations






























Interactive Weather Map New forecast layout! Learn more

10-Day Weather Forecast

Advertisements
Track Severe Weather on mobile